WR2X-13 Weather Reports


Display with metric or nautical units.
time (UTC)temp
F
wind
direction
speed
MPH
gust
MPH
rain 1hr
in
rain 24hr
in
rain mn
in
humidity
%
barometer
mb
20210922222115 73 192 0.0 3.0 0.00 0.00 0.00 85 1018.5
20210922220245 74 188 0.0 3.0 0.00 0.00 0.00 85 1018.6
20210922214434 74 211 0.0 4.0 0.00 0.00 0.00 85 1018.6
20210922210852 74 199 0.0 4.0 0.00 0.00 0.00 84 1018.7
20210922203109 75 162 0.0 7.0 0.00 0.00 0.00 85 1018.9
20210922202241 74 149 0.0 7.0 0.00 0.00 0.00 86 1018.9
20210922192119 72 174 0.0 4.0 0.00 0.00 0.00 92 1019.5
20210922191234 72 220 0.0 6.0 0.00 0.00 0.00 92 1019.7
20210922183734 72 194 0.0 3.0 0.00 0.00 0.00 91 1019.9
20210922181240 72 166 0.0 6.0 0.00 0.00 0.00 89 1020.2
20210922175408 72 186 0.0 4.0 0.00 0.00 0.00 90 1020.5
20210922174539 72 192 0.0 4.0 0.00 0.00 0.00 90 1020.6
20210922173654 74 201 0.0 8.0 0.00 0.00 0.00 85 1020.8
20210922171813 74 190 0.0 4.0 0.00 0.00 0.00 82 1020.9
20210922165114 77 153 0.0 6.0 0.00 0.00 0.00 76 1020.9
20210922164254 76 185 0.0 8.0 0.00 0.00 0.00 76 1021.1
20210922162426 76 208 0.0 8.0 0.00 0.00 0.00 77 1021.3
20210922161434 76 199 0.0 3.0 0.00 0.00 0.00 77 1021.5
20210922160629 76 202 0.0 6.0 0.00 0.00 0.00 77 1021.5
20210922155714 76 193 0.0 3.0 0.00 0.00 0.00 78 1021.7
20210922154801 76 162 0.0 8.0 0.00 0.00 0.00 78 1021.6
20210922153851 76 223 0.0 6.0 0.00 0.00 0.00 78 1021.9
20210922152911 76 229 0.0 9.0 0.00 0.00 0.00 78 1021.9
20210922151100 76 178 0.0 6.0 0.00 0.00 0.00 78 1022.0
20210922144334 76 218 0.0 4.0 0.00 0.00 0.00 77 1022.3
20210922143409 76 226 0.0 6.0 0.00 0.00 0.00 78 1022.4
20210922142546 77 205 0.0 4.0 0.00 0.00 0.00 77 1022.6
20210922141610 76 200 0.0 8.0 0.00 0.00 0.00 78 1022.5
20210922140758 75 210 0.0 8.0 0.00 0.00 0.00 79 1022.6
20210922135113 74 192 0.0 7.0 0.00 0.00 0.00 82 1022.6
20210922134124 73 201 0.0 8.0 0.00 0.00 0.00 84 1022.7
20210922132232 72 215 0.0 4.0 0.00 0.00 0.00 85 1022.8
20210922131311 72 160 0.0 4.0 0.00 0.00 0.00 86 1022.8
20210922130439 71 184 0.0 3.0 0.00 0.00 0.00 87 1022.8
20210922125615 71 210 0.0 3.0 0.00 0.00 0.00 86 1022.8
20210922124624 71 164 0.0 7.0 0.00 0.00 0.00 86 1022.8
20210922123654 71 179 0.0 6.0 0.00 0.00 0.00 86 1022.7
20210922122754 71 204 0.0 4.0 0.00 0.00 0.00 86 1022.9
20210922120954 69 181 0.0 6.0 0.00 0.00 0.00 88 1023.0
20210922115128 69 198 0.0 6.0 0.00 0.00 0.00 89 1022.9
20210922112525 68 180 0.0 2.0 0.00 0.00 0.00 91 1023.0
20210922111557 68 197 0.0 2.0 0.00 0.00 0.00 91 1023.0
20210922110654 67 170 0.0 2.0 0.00 0.00 0.00 91 1023.1
20210922105729 67 193 0.0 3.0 0.00 0.00 0.00 92 1023.1
20210922104759 67 182 0.0 4.0 0.00 0.00 0.00 92 1023.1
20210922101948 67 173 0.0 2.0 0.00 0.00 0.00 93 1023.2
20210922100949 67 149 0.0 2.0 0.00 0.00 0.00 93 1023.3
20210922100026 67 175 0.0 3.0 0.00 0.00 0.00 93 1023.2
20210922093259 67 184 0.0 3.0 0.00 0.00 0.00 93 1023.3